Local Weather Observations
KPOV - Ravena/Portage, Ohio, USA
Distance from station: W 14mi, 23km
Updated: Mon, Jan-30-2023 9:35am EST
Overcast
Overcast
 Wind from calm
Wind: Calm
Temperature: 30°F , -1°C
Dew Point: 27°F , -3°C
Humidity: 86%
Barometer: 30.15 inHg , 1021 hPa
Clouds: Overcast
Visibility: 5 miles , 8 km
Cloud details: Mostly cloudy 500 ft
Overcast 900 ft
2023/01/30 14:35 KPOV 301435Z AUTO 00000KT 5SM BKN005 OVC009 M01/M03 A3015 RMK AO2 T10151026 PWINO
KYNG - Youngstown, Ohio, USA
Distance from station: ENE 16mi, 27km
Updated: Mon, Jan-30-2023 9:28am EST
Light snow, Mist, Overcast
Light snow, Mist, Overcast
 Wind from N
Wind: N 5 mph , 7 km/h
Temperature: 30°F , -1°C
Wind Chill: 25°F , -4°C
Dew Point: 27°F , -3°C
Humidity: 86%
Barometer: 30.17 inHg , 1021.7 hPa
Summary: Light snow, Mist
Clouds: Overcast
Visibility: 2 miles , 3 km
Cloud details: Mostly cloudy 500 ft
Overcast 1200 ft
2023/01/30 14:28 KYNG 301428Z 36004KT 2SM -SN BR BKN005 OVC012 M01/M03 A3017 RMK AO2 FZDZE28 P0000 I1000 T10111028
 
KAKR - Akron (fulton), Ohio, USA
Distance from station: WSW 28mi, 45km
Updated: Mon, Jan-30-2023 8:54am EST
Haze, Overcast
Haze, Overcast
 Wind from N
Wind: N 5 mph , 7 km/h
Temperature: 34°F , 1°C
Wind Chill: 29°F , -2°C
Dew Point: 28°F , -2°C
Humidity: 81%
Barometer: 30.17 inHg , 1021.7 hPa
Summary: Haze
Clouds: Overcast
Visibility: 4 miles , 6 km
Cloud details: Overcast 600 ft
2023/01/30 13:54 KAKR 301354Z AUTO 01004KT 4SM HZ OVC006 01/M02 A3017 RMK AO2 CIG 003V008 SLP224 I1001 T00061022
KUCP - New Castle Muni, Pennsylvania, USA
Distance from station: ESE 31mi, 50km
Updated: Mon, Jan-30-2023 9:43am EST
Mist, Overcast
Mist, Overcast
 Wind from calm
Wind: Calm
Temperature: 30°F , -1°C
Dew Point: 30°F , -1°C
Humidity: 100%
Barometer: 30.18 inHg , 1022 hPa
Summary: Mist
Clouds: Overcast
Visibility: 1 1/4 miles , 2 km
Cloud details: Overcast 300 ft
2023/01/30 14:43 KUCP 301443Z AUTO 00000KT 1 1/4SM BR OVC003 M01/M01 A3018 RMK AO2
 
KCAK - Akron, Ohio, USA
Distance from station: SW 31mi, 51km
Updated: Mon, Jan-30-2023 8:51am EST
Mist, Overcast
Mist, Overcast
 Wind from NNE
Wind: NNE 5 mph , 7 km/h
Temperature: 32°F , 0°C
Wind Chill: 27°F , -3°C
Dew Point: 28°F , -2°C
Humidity: 87%
Barometer: 30.17 inHg , 1021.7 hPa
Summary: Mist
Clouds: Overcast
Visibility: 2 miles , 3 km
Cloud details: Overcast 400 ft
2023/01/30 13:51 KCAK 301351Z 02004KT 2SM BR OVC004 00/M02 A3017 RMK AO2 FZDZE17FZRAB17E47 SLP228 P0000 I1001 T00001017